createdAt,value
2019-03-24T00:01:25.843Z,55.40
2019-03-24T00:03:54.069Z,55.40
2019-03-24T00:06:22.312Z,55.40
2019-03-24T00:08:50.559Z,55.40
2019-03-24T00:11:18.803Z,55.40
2019-03-24T00:13:47.041Z,55.40
2019-03-24T00:16:15.558Z,55.40
2019-03-24T00:18:44.090Z,55.30
2019-03-24T00:21:12.394Z,55.40
2019-03-24T00:23:40.646Z,55.40
2019-03-24T00:26:08.878Z,55.40
2019-03-24T00:28:37.105Z,55.40
2019-03-24T00:31:05.502Z,55.30
2019-03-24T00:33:33.729Z,55.30
2019-03-24T00:36:01.963Z,55.30
2019-03-24T00:38:30.209Z,55.30
2019-03-24T00:40:58.457Z,55.40
2019-03-24T00:43:26.676Z,55.30
2019-03-24T00:45:54.922Z,55.30
2019-03-24T00:48:23.197Z,55.40
2019-03-24T00:50:51.439Z,56.20
2019-03-24T00:53:19.691Z,55.50
2019-03-24T00:55:47.922Z,55.40
2019-03-24T00:58:16.164Z,55.40
2019-03-24T01:00:49.380Z,55.30
2019-03-24T01:03:17.675Z,55.30
2019-03-24T01:05:45.971Z,55.30
2019-03-24T01:08:14.498Z,55.40
2019-03-24T01:10:42.721Z,55.40
2019-03-24T01:13:12.605Z,55.40
2019-03-24T01:15:47.795Z,55.40
2019-03-24T01:18:10.906Z,55.40
2019-03-24T01:20:39.182Z,55.40
2019-03-24T01:23:07.490Z,55.40
2019-03-24T01:25:35.725Z,55.50
2019-03-24T01:28:03.968Z,55.50
2019-03-24T01:30:32.494Z,55.50
2019-03-24T01:33:00.714Z,55.50
2019-03-24T01:35:28.951Z,55.50
2019-03-24T01:37:57.204Z,55.60
2019-03-24T01:40:25.430Z,55.60
2019-03-24T01:42:53.683Z,55.60
2019-03-24T01:45:21.987Z,55.60
2019-03-24T01:47:51.571Z,55.60
2019-03-24T01:50:19.809Z,55.50
2019-03-24T01:52:48.530Z,55.70
2019-03-24T01:55:16.771Z,55.80
2019-03-24T01:57:45.022Z,55.80
2019-03-24T02:00:13.266Z,55.90
2019-03-24T02:02:41.513Z,55.80
2019-03-24T02:05:09.827Z,55.80
2019-03-24T02:07:38.164Z,55.80
2019-03-24T02:10:09.122Z,55.90
2019-03-24T02:12:37.359Z,55.90
2019-03-24T02:15:08.730Z,55.90
2019-03-24T02:17:37.231Z,55.90
2019-03-24T02:20:06.098Z,55.90
2019-03-24T02:22:34.609Z,55.90
2019-03-24T02:25:02.833Z,56.00
2019-03-24T02:27:32.190Z,55.90
2019-03-24T02:30:00.688Z,55.90
2019-03-24T02:32:29.045Z,55.90
2019-03-24T02:34:57.290Z,55.90
2019-03-24T02:37:25.543Z,55.90
2019-03-24T02:39:53.776Z,55.90
2019-03-24T02:42:21.996Z,55.90
2019-03-24T02:44:50.298Z,56.00
2019-03-24T02:47:18.533Z,56.00
2019-03-24T02:49:46.838Z,56.00
2019-03-24T02:52:15.102Z,56.00
2019-03-24T02:54:43.390Z,55.90
2019-03-24T02:57:11.639Z,56.00
2019-03-24T02:59:39.883Z,56.00
2019-03-24T03:02:08.114Z,56.10
2019-03-24T03:04:36.369Z,56.10
2019-03-24T03:07:04.770Z,56.00
2019-03-24T03:09:33.098Z,56.00
2019-03-24T03:12:01.326Z,56.10
2019-03-24T03:14:29.609Z,56.20
2019-03-24T03:16:57.911Z,56.20
2019-03-24T03:19:26.248Z,56.20
2019-03-24T03:21:54.505Z,56.10
2019-03-24T03:24:22.738Z,56.10
2019-03-24T03:26:53.365Z,56.10
2019-03-24T03:29:21.709Z,56.10
2019-03-24T03:31:49.939Z,56.20
2019-03-24T03:34:18.174Z,56.30
2019-03-24T03:36:46.415Z,56.30
2019-03-24T03:39:14.707Z,56.30
2019-03-24T03:41:42.932Z,56.30
2019-03-24T03:44:11.214Z,56.20
2019-03-24T03:46:51.837Z,56.20
2019-03-24T03:49:09.775Z,56.30
2019-03-24T03:51:38.023Z,56.30
2019-03-24T03:54:06.577Z,56.20
2019-03-24T03:56:34.807Z,56.40
2019-03-24T03:59:04.677Z,56.20
2019-03-24T04:01:32.915Z,56.30
2019-03-24T04:04:01.148Z,56.20
2019-03-24T04:06:31.107Z,56.30
2019-03-24T04:08:59.342Z,56.90
2019-03-24T04:11:27.570Z,56.20
2019-03-24T04:13:57.910Z,55.60
2019-03-24T04:16:45.645Z,56.20
2019-03-24T04:19:13.887Z,56.20
2019-03-24T04:21:42.126Z,56.20
2019-03-24T04:24:11.510Z,56.30
2019-03-24T04:26:40.051Z,56.90
2019-03-24T04:29:08.282Z,56.30
2019-03-24T04:31:38.152Z,56.40
2019-03-24T04:34:06.397Z,56.50
2019-03-24T04:36:35.886Z,56.50
2019-03-24T04:39:05.784Z,56.60
2019-03-24T04:41:34.030Z,56.70
2019-03-24T04:44:02.267Z,56.60
2019-03-24T04:46:30.498Z,56.70
2019-03-24T04:48:58.745Z,56.70
2019-03-24T04:51:26.987Z,56.70
2019-03-24T04:53:55.235Z,56.80
2019-03-24T04:56:23.504Z,56.70
2019-03-24T04:58:51.752Z,56.70
2019-03-24T05:01:19.998Z,56.60
2019-03-24T05:03:48.326Z,56.80
2019-03-24T05:06:16.559Z,56.70
2019-03-24T05:08:45.638Z,56.70
2019-03-24T05:11:13.975Z,57.30
2019-03-24T05:13:42.198Z,56.70
2019-03-24T05:16:10.422Z,56.70
2019-03-24T05:18:38.677Z,56.70
2019-03-24T05:21:06.924Z,56.70
2019-03-24T05:23:35.162Z,56.80
2019-03-24T05:26:03.641Z,56.70
2019-03-24T05:28:31.907Z,56.60
2019-03-24T05:31:00.137Z,56.60
2019-03-24T05:33:28.386Z,56.60
2019-03-24T05:35:56.636Z,56.60
2019-03-24T05:38:24.866Z,56.70
2019-03-24T05:40:53.448Z,56.80
2019-03-24T05:43:21.685Z,56.50
2019-03-24T05:45:49.917Z,56.60
2019-03-24T05:48:18.169Z,56.60
2019-03-24T05:50:46.406Z,56.60
2019-03-24T05:53:14.647Z,56.60
2019-03-24T05:55:42.968Z,56.70
2019-03-24T05:58:11.229Z,56.60
2019-03-24T06:00:39.497Z,56.60
2019-03-24T06:03:08.353Z,56.40
2019-03-24T06:05:36.590Z,56.60
2019-03-24T06:08:04.819Z,56.70
2019-03-24T06:10:33.063Z,56.80
2019-03-24T06:13:01.289Z,56.50
2019-03-24T06:15:29.527Z,56.60
2019-03-24T06:17:57.774Z,56.70
2019-03-24T06:20:26.008Z,56.70
2019-03-24T06:22:54.246Z,56.80
2019-03-24T06:25:22.497Z,56.70
2019-03-24T06:27:50.740Z,56.80
2019-03-24T06:30:18.976Z,56.90
2019-03-24T06:32:47.267Z,56.90
2019-03-24T06:35:15.490Z,57.10
2019-03-24T06:37:44.608Z,56.90
2019-03-24T06:40:12.862Z,56.90
2019-03-24T06:42:41.103Z,57.10
2019-03-24T06:45:09.601Z,57.00
2019-03-24T06:47:37.845Z,57.20
2019-03-24T06:50:07.012Z,57.40
2019-03-24T06:52:35.405Z,57.60
2019-03-24T06:55:03.652Z,57.60
2019-03-24T06:57:31.897Z,57.50
2019-03-24T07:00:00.254Z,57.30
2019-03-24T07:02:28.760Z,57.20
2019-03-24T07:04:58.621Z,57.10
2019-03-24T07:07:26.860Z,57.30
2019-03-24T07:09:55.109Z,57.40
2019-03-24T07:12:23.337Z,57.40
2019-03-24T07:14:51.570Z,57.50
2019-03-24T07:17:19.936Z,57.40
2019-03-24T07:19:48.169Z,57.40
2019-03-24T07:22:16.402Z,57.60
2019-03-24T07:24:44.663Z,57.50
2019-03-24T07:27:12.894Z,57.60
2019-03-24T07:29:41.272Z,57.70
2019-03-24T07:32:09.653Z,57.60
2019-03-24T07:34:37.915Z,57.60
2019-03-24T07:37:06.831Z,57.60
2019-03-24T07:39:35.081Z,57.70
2019-03-24T07:42:05.489Z,57.70
2019-03-24T07:44:33.272Z,57.80
2019-03-24T07:47:04.776Z,57.90
2019-03-24T07:49:33.030Z,58.10
2019-03-24T07:52:01.333Z,58.20
2019-03-24T07:54:29.569Z,58.60
2019-03-24T07:56:57.799Z,58.70
2019-03-24T07:59:26.034Z,58.70
2019-03-24T08:01:54.285Z,58.90
2019-03-24T08:04:22.517Z,59.10
2019-03-24T08:06:50.745Z,60.10
2019-03-24T08:09:18.989Z,59.70
2019-03-24T08:11:47.226Z,59.90
2019-03-24T08:14:15.448Z,61.00
2019-03-24T08:16:43.733Z,60.30
2019-03-24T08:19:11.962Z,60.40
2019-03-24T08:21:40.228Z,60.40
2019-03-24T08:24:08.480Z,59.50
2019-03-24T08:26:36.719Z,59.50
2019-03-24T08:29:05.221Z,59.30
2019-03-24T08:31:33.472Z,59.50
2019-03-24T08:34:01.717Z,59.70
2019-03-24T08:36:29.945Z,59.60
2019-03-24T08:38:58.381Z,59.60
2019-03-24T08:41:26.627Z,59.60
2019-03-24T08:43:54.869Z,59.50
2019-03-24T08:46:23.431Z,59.80
2019-03-24T08:48:51.658Z,59.20
2019-03-24T08:51:20.004Z,58.80
2019-03-24T08:53:48.262Z,58.80
2019-03-24T08:56:16.789Z,58.50
2019-03-24T08:58:45.027Z,58.30
2019-03-24T09:01:15.074Z,58.20
2019-03-24T09:03:43.317Z,57.60
2019-03-24T09:06:13.278Z,57.40
2019-03-24T09:08:41.612Z,57.70
2019-03-24T09:11:09.848Z,57.70
2019-03-24T09:13:38.084Z,57.70
2019-03-24T09:16:06.368Z,57.60
2019-03-24T09:18:34.621Z,57.60
2019-03-24T09:21:02.905Z,57.40
2019-03-24T09:23:31.214Z,57.20
2019-03-24T09:25:59.463Z,57.00
2019-03-24T09:28:27.730Z,56.90
2019-03-24T09:30:55.981Z,57.00
2019-03-24T09:33:24.223Z,56.90
2019-03-24T09:35:52.477Z,56.70
2019-03-24T09:38:20.822Z,56.50
2019-03-24T09:40:49.094Z,55.90
2019-03-24T09:43:17.378Z,55.90
2019-03-24T09:45:45.810Z,55.80
2019-03-24T09:48:15.714Z,55.60
2019-03-24T09:50:43.950Z,55.40
2019-03-24T09:53:12.209Z,55.00
2019-03-24T09:55:40.437Z,55.40
2019-03-24T09:58:08.673Z,55.00
2019-03-24T10:00:36.985Z,55.10
2019-03-24T10:03:05.216Z,55.70
2019-03-24T10:05:33.458Z,55.40
2019-03-24T10:08:01.891Z,55.80
2019-03-24T10:10:30.129Z,55.60
2019-03-24T10:12:58.443Z,55.50
2019-03-24T10:15:26.690Z,55.80
2019-03-24T10:17:56.056Z,55.60
2019-03-24T10:20:24.289Z,55.20
2019-03-24T10:22:52.572Z,55.00
2019-03-24T10:25:20.787Z,54.80
2019-03-24T10:27:49.025Z,54.90
2019-03-24T10:30:17.356Z,54.90
2019-03-24T10:32:45.585Z,54.80
2019-03-24T10:35:13.826Z,54.60
2019-03-24T10:37:42.426Z,54.50
2019-03-24T10:40:10.661Z,54.70
2019-03-24T10:42:38.897Z,54.70
2019-03-24T10:45:07.909Z,54.70
2019-03-24T10:47:36.137Z,54.10
2019-03-24T10:50:08.762Z,53.90
2019-03-24T10:52:37.281Z,53.80
2019-03-24T10:55:08.130Z,53.70
2019-03-24T10:57:36.439Z,53.50
2019-03-24T11:00:09.160Z,53.60
2019-03-24T11:02:37.395Z,53.90
2019-03-24T11:05:06.369Z,54.20
2019-03-24T11:07:34.698Z,54.40
2019-03-24T11:10:03.466Z,54.50
2019-03-24T11:12:31.693Z,54.60
2019-03-24T11:15:00.428Z,54.50
2019-03-24T11:17:28.667Z,54.90
2019-03-24T11:19:56.980Z,54.00
2019-03-24T11:22:25.223Z,54.80
2019-03-24T11:24:53.494Z,54.90
2019-03-24T11:27:21.794Z,53.60
2019-03-24T11:29:50.056Z,53.30
2019-03-24T11:32:18.281Z,53.40
2019-03-24T11:34:46.581Z,53.30
2019-03-24T11:37:15.020Z,53.70
2019-03-24T11:39:44.684Z,53.60
2019-03-24T11:42:13.080Z,53.80
2019-03-24T11:44:41.320Z,53.60
2019-03-24T11:47:09.615Z,52.80
2019-03-24T11:49:45.696Z,53.40
2019-03-24T11:52:07.846Z,53.70
2019-03-24T11:54:36.095Z,54.70
2019-03-24T11:57:04.317Z,53.00
2019-03-24T11:59:32.834Z,53.60
2019-03-24T12:02:01.069Z,53.60
2019-03-24T12:04:29.309Z,54.00
2019-03-24T12:06:57.620Z,53.60
2019-03-24T12:09:25.938Z,53.60
2019-03-24T12:11:54.532Z,53.80
2019-03-24T12:14:22.786Z,53.50
2019-03-24T12:16:51.026Z,52.00
2019-03-24T12:19:20.570Z,52.60
2019-03-24T12:21:48.831Z,53.50
2019-03-24T12:24:17.153Z,54.00
2019-03-24T12:26:45.441Z,52.70
2019-03-24T12:29:15.819Z,53.30
2019-03-24T12:31:44.060Z,52.80
2019-03-24T12:34:12.293Z,52.70
2019-03-24T12:36:40.551Z,52.70
2019-03-24T12:39:08.864Z,52.40
2019-03-24T12:41:37.092Z,52.10
2019-03-24T12:44:05.353Z,52.80
2019-03-24T12:46:33.582Z,53.30
2019-03-24T12:49:01.898Z,52.80
2019-03-24T12:51:30.145Z,53.10
2019-03-24T12:53:58.467Z,53.60
2019-03-24T12:56:26.699Z,53.50
2019-03-24T12:58:54.990Z,53.20
2019-03-24T13:01:23.219Z,52.80
2019-03-24T13:03:51.451Z,52.30
2019-03-24T13:06:19.978Z,52.20
2019-03-24T13:08:48.297Z,52.40
2019-03-24T13:11:16.559Z,52.50
2019-03-24T13:13:46.209Z,51.60
2019-03-24T13:16:14.506Z,52.00
2019-03-24T13:18:44.374Z,51.90
2019-03-24T13:21:12.623Z,51.70
2019-03-24T13:23:42.482Z,51.90
2019-03-24T13:26:10.727Z,52.00
2019-03-24T13:28:38.974Z,51.60
2019-03-24T13:31:07.211Z,51.90
2019-03-24T13:33:35.522Z,52.50
2019-03-24T13:36:06.366Z,52.70
2019-03-24T13:38:34.770Z,52.70
2019-03-24T13:41:03.001Z,52.20
2019-03-24T13:43:31.268Z,51.40
2019-03-24T13:45:59.619Z,51.10
2019-03-24T13:48:27.906Z,50.90
2019-03-24T13:50:56.181Z,50.50
2019-03-24T13:53:24.422Z,50.60
2019-03-24T13:55:52.723Z,50.70
2019-03-24T13:58:22.138Z,50.60
2019-03-24T14:00:50.433Z,51.00
2019-03-24T14:03:18.677Z,50.40
2019-03-24T14:05:46.925Z,50.10
2019-03-24T14:08:15.174Z,49.70
2019-03-24T14:10:43.407Z,48.40
2019-03-24T14:13:12.445Z,48.30
2019-03-24T14:15:41.067Z,48.60
2019-03-24T14:18:09.311Z,48.20
2019-03-24T14:20:43.352Z,48.10
2019-03-24T14:23:07.542Z,48.50
2019-03-24T14:25:36.933Z,49.00
2019-03-24T14:28:05.265Z,49.20
2019-03-24T14:30:41.716Z,49.80
2019-03-24T14:33:09.954Z,49.30
2019-03-24T14:35:38.187Z,48.50
2019-03-24T14:38:06.786Z,49.80
2019-03-24T14:40:35.026Z,48.70
2019-03-24T14:43:03.261Z,48.00
2019-03-24T14:45:31.501Z,48.10
2019-03-24T14:47:59.738Z,48.30
2019-03-24T14:50:28.051Z,48.10
2019-03-24T14:52:56.355Z,47.60
2019-03-24T14:55:24.594Z,47.70
2019-03-24T14:57:52.822Z,47.20
2019-03-24T15:00:30.108Z,47.00
2019-03-24T15:02:58.370Z,46.60
2019-03-24T15:05:26.597Z,46.40
2019-03-24T15:07:54.840Z,46.30
2019-03-24T15:10:23.074Z,46.40
2019-03-24T15:12:51.313Z,45.90
2019-03-24T15:15:19.552Z,46.20
2019-03-24T15:17:48.033Z,47.00
2019-03-24T15:20:16.287Z,46.00
2019-03-24T15:22:44.601Z,45.50
2019-03-24T15:25:12.870Z,46.00
2019-03-24T15:27:41.119Z,46.10
2019-03-24T15:30:09.359Z,46.30
2019-03-24T15:32:37.665Z,46.70
2019-03-24T15:35:07.048Z,46.60
2019-03-24T15:37:35.282Z,46.20
2019-03-24T15:40:04.253Z,46.30
2019-03-24T15:42:32.514Z,45.90
2019-03-24T15:45:00.745Z,45.90
2019-03-24T15:47:28.997Z,45.50
2019-03-24T15:49:57.243Z,45.70
2019-03-24T15:52:25.476Z,45.50
2019-03-24T15:54:53.730Z,45.20
2019-03-24T15:57:21.974Z,45.20
2019-03-24T15:59:50.447Z,45.10
2019-03-24T16:02:18.928Z,44.80
2019-03-24T16:04:47.167Z,45.10
2019-03-24T16:07:15.466Z,44.90
2019-03-24T16:09:43.731Z,44.60
2019-03-24T16:12:11.970Z,44.60
2019-03-24T16:14:40.201Z,44.30
2019-03-24T16:17:08.453Z,44.60
2019-03-24T16:19:36.961Z,44.50
2019-03-24T16:22:05.262Z,44.60
2019-03-24T16:24:34.598Z,44.60
2019-03-24T16:27:02.834Z,44.50
2019-03-24T16:29:31.067Z,44.30
2019-03-24T16:31:59.409Z,44.40
2019-03-24T16:34:27.640Z,44.50
2019-03-24T16:36:55.870Z,44.30
2019-03-24T16:39:24.155Z,44.20
2019-03-24T16:41:52.438Z,44.20
2019-03-24T16:44:20.674Z,44.20
2019-03-24T16:46:49.005Z,44.40
2019-03-24T16:49:17.408Z,44.40
2019-03-24T16:51:45.663Z,44.00
2019-03-24T16:54:13.913Z,44.00
2019-03-24T16:56:42.174Z,43.90
2019-03-24T16:59:10.393Z,44.00
2019-03-24T17:01:38.664Z,44.00
2019-03-24T17:04:06.901Z,44.00
2019-03-24T17:06:35.140Z,43.70
2019-03-24T17:09:04.134Z,44.00
2019-03-24T17:11:32.552Z,44.10
2019-03-24T17:14:00.786Z,44.30
2019-03-24T17:16:29.031Z,44.40
2019-03-24T17:18:57.261Z,44.50
2019-03-24T17:21:25.773Z,44.40
2019-03-24T17:23:54.047Z,44.30
2019-03-24T17:26:22.289Z,44.40
2019-03-24T17:28:50.527Z,44.40
2019-03-24T17:31:18.857Z,44.50
2019-03-24T17:33:47.269Z,44.40
2019-03-24T17:36:15.505Z,44.60
2019-03-24T17:38:43.749Z,44.70
2019-03-24T17:41:11.986Z,44.80
2019-03-24T17:43:40.283Z,44.80
2019-03-24T17:46:08.566Z,44.80
2019-03-24T17:48:36.789Z,44.80
2019-03-24T17:51:05.038Z,45.00
2019-03-24T17:53:33.285Z,44.90
2019-03-24T17:56:01.535Z,44.90
2019-03-24T17:58:29.777Z,44.90
2019-03-24T18:00:58.074Z,45.00
2019-03-24T18:03:26.310Z,45.80
2019-03-24T18:05:56.250Z,45.10
2019-03-24T18:08:24.860Z,45.00
2019-03-24T18:10:53.089Z,45.10
2019-03-24T18:13:21.320Z,45.10
2019-03-24T18:15:49.580Z,45.20
2019-03-24T18:18:17.895Z,45.10
2019-03-24T18:20:46.271Z,45.20
2019-03-24T18:23:14.905Z,45.10
2019-03-24T18:25:43.205Z,45.20
2019-03-24T18:28:11.443Z,45.20
2019-03-24T18:30:39.879Z,45.10
2019-03-24T18:33:08.189Z,45.20
2019-03-24T18:35:36.420Z,45.10
2019-03-24T18:38:04.724Z,45.00
2019-03-24T18:40:32.957Z,45.10
2019-03-24T18:43:01.184Z,45.10
2019-03-24T18:45:29.455Z,45.20
2019-03-24T18:47:57.762Z,45.30
2019-03-24T18:50:25.994Z,45.20
2019-03-24T18:52:54.278Z,45.30
2019-03-24T18:55:22.522Z,45.10
2019-03-24T18:57:50.829Z,45.20
2019-03-24T19:00:19.093Z,45.20
2019-03-24T19:02:47.339Z,45.10
2019-03-24T19:05:15.631Z,45.10
2019-03-24T19:07:43.890Z,45.20
2019-03-24T19:10:12.264Z,45.10
2019-03-24T19:12:40.507Z,45.30
2019-03-24T19:15:10.910Z,45.20
2019-03-24T19:17:39.140Z,45.10
2019-03-24T19:20:08.558Z,45.10
2019-03-24T19:22:36.798Z,45.10
2019-03-24T19:25:08.614Z,45.10
2019-03-24T19:27:36.851Z,45.10
2019-03-24T19:30:16.259Z,45.10
2019-03-24T19:32:44.501Z,45.10
2019-03-24T19:35:12.764Z,45.20
2019-03-24T19:37:42.813Z,45.20
2019-03-24T19:40:23.012Z,45.30
2019-03-24T19:42:51.265Z,45.20
2019-03-24T19:45:19.503Z,45.30
2019-03-24T19:47:47.738Z,45.30
2019-03-24T19:50:15.986Z,45.40
2019-03-24T19:52:45.048Z,45.40
2019-03-24T19:55:13.454Z,45.40
2019-03-24T19:57:41.709Z,45.40
2019-03-24T20:00:09.941Z,45.40
2019-03-24T20:02:38.184Z,45.40
2019-03-24T20:05:06.869Z,45.50
2019-03-24T20:07:35.106Z,45.70
2019-03-24T20:10:04.681Z,45.60
2019-03-24T20:12:32.954Z,45.70
2019-03-24T20:15:01.192Z,45.80
2019-03-24T20:17:29.433Z,45.90
2019-03-24T20:19:59.388Z,45.90
2019-03-24T20:22:27.617Z,45.90
2019-03-24T20:24:55.846Z,46.00
2019-03-24T20:27:25.992Z,45.90
2019-03-24T20:29:55.579Z,46.00
2019-03-24T20:32:26.586Z,45.90
2019-03-24T20:34:55.171Z,46.10
2019-03-24T20:37:23.484Z,46.10
2019-03-24T20:39:51.744Z,47.00
2019-03-24T20:42:19.990Z,47.10
2019-03-24T20:44:48.226Z,47.10
2019-03-24T20:47:16.460Z,47.00
2019-03-24T20:49:44.741Z,47.10
2019-03-24T20:52:12.980Z,47.10
2019-03-24T20:54:41.231Z,47.10
2019-03-24T20:57:09.543Z,47.20
2019-03-24T20:59:37.782Z,47.30
2019-03-24T21:02:06.613Z,47.30
2019-03-24T21:04:34.889Z,47.50
2019-03-24T21:07:03.134Z,47.50
2019-03-24T21:09:31.389Z,47.50
2019-03-24T21:11:59.641Z,47.60
2019-03-24T21:14:27.874Z,47.70
2019-03-24T21:16:56.119Z,47.70
2019-03-24T21:19:24.380Z,47.70
2019-03-24T21:21:52.613Z,47.80
2019-03-24T21:24:20.836Z,47.80
2019-03-24T21:26:49.085Z,47.90
2019-03-24T21:29:17.504Z,47.80
2019-03-24T21:31:45.784Z,47.90
2019-03-24T21:34:14.338Z,47.90
2019-03-24T21:36:43.177Z,48.10
2019-03-24T21:39:11.546Z,48.20
2019-03-24T21:41:39.774Z,48.10
2019-03-24T21:44:07.998Z,48.20
2019-03-24T21:46:36.236Z,48.40
2019-03-24T21:49:04.585Z,48.50
2019-03-24T21:51:32.798Z,48.60
2019-03-24T21:54:01.026Z,48.70
2019-03-24T21:56:29.286Z,48.70
2019-03-24T21:58:57.637Z,48.90
2019-03-24T22:01:25.870Z,49.00
2019-03-24T22:03:54.117Z,49.00
2019-03-24T22:06:23.538Z,49.20
2019-03-24T22:08:51.775Z,49.00
2019-03-24T22:11:20.097Z,49.00
2019-03-24T22:13:48.329Z,49.10
2019-03-24T22:16:16.577Z,49.20
2019-03-24T22:18:46.530Z,49.00
2019-03-24T22:21:16.386Z,49.40
2019-03-24T22:23:52.136Z,49.10
2019-03-24T22:26:14.661Z,49.30
2019-03-24T22:28:42.899Z,49.30
2019-03-24T22:31:11.738Z,49.30
2019-03-24T22:33:39.998Z,49.40
2019-03-24T22:36:08.294Z,49.40
2019-03-24T22:38:36.533Z,49.40
2019-03-24T22:41:04.777Z,49.50
2019-03-24T22:43:33.015Z,49.60
2019-03-24T22:46:01.263Z,49.50
2019-03-24T22:48:29.525Z,49.60
2019-03-24T22:50:57.755Z,49.60
2019-03-24T22:53:25.986Z,49.60
2019-03-24T22:55:55.626Z,49.70
2019-03-24T22:58:23.921Z,49.70
2019-03-24T23:00:53.941Z,50.00
2019-03-24T23:03:24.914Z,49.90
2019-03-24T23:05:52.494Z,50.00
2019-03-24T23:08:20.730Z,50.00
2019-03-24T23:10:48.975Z,50.20
2019-03-24T23:13:17.225Z,50.10
2019-03-24T23:15:45.473Z,50.00
2019-03-24T23:18:13.713Z,50.10
2019-03-24T23:20:41.946Z,50.20
2019-03-24T23:23:10.170Z,50.90
2019-03-24T23:25:38.422Z,50.50
2019-03-24T23:28:06.640Z,50.40
2019-03-24T23:30:34.951Z,50.30
2019-03-24T23:33:03.527Z,50.40
2019-03-24T23:35:31.757Z,50.40
2019-03-24T23:38:00.024Z,50.40
2019-03-24T23:40:28.255Z,50.90
2019-03-24T23:42:56.519Z,50.50
2019-03-24T23:45:26.382Z,50.70
2019-03-24T23:47:54.900Z,50.50
2019-03-24T23:50:23.143Z,50.80
2019-03-24T23:52:51.380Z,50.80
2019-03-24T23:55:19.657Z,50.90
2019-03-24T23:57:47.896Z,51.10
